createdAt,value
2022-08-02T00:01:34.832Z,79.64
2022-08-02T00:06:39.784Z,79.79
2022-08-02T00:11:46.848Z,79.61
2022-08-02T00:16:51.293Z,79.52
2022-08-02T00:21:55.635Z,79.49
2022-08-02T00:27:00.268Z,79.53
2022-08-02T00:32:05.623Z,79.82
2022-08-02T00:37:09.653Z,79.85
2022-08-02T00:42:16.815Z,79.62
2022-08-02T00:47:21.210Z,79.85
2022-08-02T00:52:26.168Z,80.00
2022-08-02T00:57:30.213Z,80.03
2022-08-02T01:02:34.541Z,80.11
2022-08-02T01:07:39.399Z,80.49
2022-08-02T01:12:43.715Z,80.75
2022-08-02T01:18:03.434Z,80.64
2022-08-02T01:24:03.538Z,80.60
2022-08-02T01:29:15.022Z,80.82
2022-08-02T01:34:38.018Z,80.79
2022-08-02T01:39:46.256Z,81.09
2022-08-02T01:44:54.214Z,81.33
2022-08-02T01:50:06.337Z,81.20
2022-08-02T01:55:57.729Z,81.14
2022-08-02T02:01:07.069Z,81.14
2022-08-02T02:06:13.291Z,81.18
2022-08-02T02:12:12.085Z,81.11
2022-08-02T02:16:47.502Z,81.07
2022-08-02T02:21:52.166Z,81.22
2022-08-02T02:26:56.465Z,81.27
2022-08-02T02:32:02.904Z,81.51
2022-08-02T02:37:17.671Z,81.74
2022-08-02T02:42:34.535Z,82.01
2022-08-02T02:47:41.808Z,82.24
2022-08-02T02:52:48.185Z,82.61
2022-08-02T02:57:53.234Z,82.63
2022-08-02T03:02:58.000Z,83.05
2022-08-02T03:08:02.429Z,83.54
2022-08-02T03:13:06.950Z,83.78
2022-08-02T03:18:11.115Z,83.72
2022-08-02T03:23:15.205Z,83.67
2022-08-02T03:28:22.452Z,83.68
2022-08-02T03:33:27.826Z,83.76
2022-08-02T03:38:35.415Z,83.85
2022-08-02T03:43:40.813Z,83.74
2022-08-02T03:48:46.178Z,83.75
2022-08-02T03:53:51.230Z,83.75
2022-08-02T03:59:15.827Z,83.64
2022-08-02T04:04:20.155Z,83.28
2022-08-02T04:09:24.246Z,82.92
2022-08-02T04:14:29.692Z,82.86
2022-08-02T04:19:43.334Z,82.84
2022-08-02T04:24:55.155Z,82.44
2022-08-02T04:30:02.187Z,82.17
2022-08-02T04:35:19.036Z,81.96
2022-08-02T04:40:24.618Z,82.21
2022-08-02T04:45:31.600Z,82.21
2022-08-02T04:50:36.578Z,82.13
2022-08-02T04:55:47.219Z,82.11
2022-08-02T05:00:53.919Z,82.54
2022-08-02T05:05:58.192Z,82.19
2022-08-02T05:11:02.640Z,82.11
2022-08-02T05:16:06.661Z,81.96
2022-08-02T05:21:11.015Z,82.16
2022-08-02T05:26:15.086Z,81.67
2022-08-02T05:31:19.695Z,81.08
2022-08-02T05:36:24.547Z,80.78
2022-08-02T05:41:29.239Z,80.50
2022-08-02T05:46:33.633Z,80.40
2022-08-02T05:52:06.938Z,79.79
2022-08-02T05:57:51.186Z,79.13
2022-08-02T06:03:30.790Z,78.87
2022-08-02T06:08:48.143Z,78.50
2022-08-02T06:13:54.867Z,78.17
2022-08-02T06:19:01.415Z,77.54
2022-08-02T06:24:09.497Z,77.10
2022-08-02T06:29:14.745Z,76.18
2022-08-02T06:34:19.688Z,75.53
2022-08-02T06:39:45.534Z,74.99
2022-08-02T06:44:54.298Z,74.54
2022-08-02T06:50:01.672Z,74.20
2022-08-02T06:55:07.884Z,73.46
2022-08-02T07:00:13.023Z,72.17
2022-08-02T07:05:20.233Z,72.02
2022-08-02T07:10:24.761Z,71.36
2022-08-02T07:15:29.326Z,70.35
2022-08-02T07:20:35.116Z,68.19
2022-08-02T07:26:02.695Z,67.69
2022-08-02T07:31:04.756Z,67.06
2022-08-02T07:36:17.011Z,65.62
2022-08-02T07:41:27.045Z,63.50
2022-08-02T07:46:32.823Z,62.71
2022-08-02T07:51:37.384Z,62.63
2022-08-02T07:56:41.485Z,62.65
2022-08-02T08:01:46.242Z,60.25
2022-08-02T08:06:52.626Z,58.47
2022-08-02T08:11:56.765Z,59.63
2022-08-02T08:17:01.123Z,60.40
2022-08-02T08:22:05.555Z,59.89
2022-08-02T08:27:14.976Z,60.09
2022-08-02T08:32:20.097Z,59.49
2022-08-02T08:37:24.414Z,59.17
2022-08-02T08:42:29.601Z,60.28
2022-08-02T08:47:40.096Z,59.11
2022-08-02T08:53:06.498Z,59.63
2022-08-02T08:58:13.437Z,58.56
2022-08-02T09:03:19.335Z,58.19
2022-08-02T09:08:26.429Z,58.38
2022-08-02T09:13:44.961Z,57.44
2022-08-02T09:18:50.919Z,56.65
2022-08-02T09:23:56.175Z,56.22
2022-08-02T09:29:03.146Z,55.14
2022-08-02T09:34:08.131Z,54.48
2022-08-02T09:39:19.212Z,53.78
2022-08-02T09:44:32.506Z,53.35
2022-08-02T09:49:52.355Z,54.03
2022-08-02T09:55:05.459Z,54.72
2022-08-02T10:00:14.912Z,54.72
2022-08-02T10:05:22.274Z,53.54
2022-08-02T10:10:26.922Z,51.42
2022-08-02T10:15:31.356Z,50.61
2022-08-02T10:20:45.582Z,50.24
2022-08-02T10:25:53.895Z,50.74
2022-08-02T10:31:04.762Z,50.02
2022-08-02T10:36:10.585Z,50.65
2022-08-02T10:41:15.378Z,50.99
2022-08-02T10:46:36.260Z,50.26
2022-08-02T10:51:56.084Z,48.46
2022-08-02T10:57:01.883Z,47.10
2022-08-02T11:02:07.851Z,47.17
2022-08-02T11:07:18.855Z,46.47
2022-08-02T11:12:22.991Z,46.50
2022-08-02T11:17:38.195Z,45.15
2022-08-02T11:22:47.409Z,46.30
2022-08-02T11:27:59.355Z,46.18
2022-08-02T11:33:04.695Z,47.13
2022-08-02T11:38:21.347Z,47.17
2022-08-02T11:43:28.182Z,46.85
2022-08-02T11:48:39.495Z,46.51
2022-08-02T11:53:51.919Z,45.87
2022-08-02T11:59:09.683Z,46.78
2022-08-02T12:04:19.353Z,46.49
2022-08-02T12:09:30.504Z,45.26
2022-08-02T12:14:44.755Z,45.18
2022-08-02T12:19:49.462Z,44.21
2022-08-02T12:24:59.001Z,44.42
2022-08-02T12:30:16.709Z,44.02
2022-08-02T12:35:32.057Z,42.89
2022-08-02T12:40:37.013Z,42.57
2022-08-02T12:45:54.387Z,42.78
2022-08-02T12:50:58.687Z,42.56
2022-08-02T12:56:04.006Z,41.83
2022-08-02T13:01:08.395Z,41.64
2022-08-02T13:06:39.487Z,41.87
2022-08-02T13:11:37.130Z,41.42
2022-08-02T13:16:46.323Z,41.03
2022-08-02T13:22:02.508Z,40.72
2022-08-02T13:27:09.322Z,40.88
2022-08-02T13:32:14.216Z,41.10
2022-08-02T13:37:19.480Z,40.06
2022-08-02T13:42:23.858Z,41.18
2022-08-02T13:47:36.475Z,41.42
2022-08-02T13:52:52.901Z,40.84
2022-08-02T13:58:00.068Z,39.40
2022-08-02T14:03:07.326Z,38.92
2022-08-02T14:08:16.196Z,38.51
2022-08-02T14:13:21.321Z,38.03
2022-08-02T14:18:25.885Z,38.42
2022-08-02T14:23:50.752Z,37.50
2022-08-02T14:28:55.834Z,38.32
2022-08-02T14:34:00.687Z,39.68
2022-08-02T14:39:05.113Z,38.81
2022-08-02T14:44:09.350Z,38.72
2022-08-02T14:49:14.464Z,37.95
2022-08-02T14:54:20.480Z,37.78
2022-08-02T14:59:32.499Z,37.56
2022-08-02T15:04:43.197Z,37.81
2022-08-02T15:09:48.244Z,37.87
2022-08-02T15:14:53.874Z,35.62
2022-08-02T15:20:02.996Z,34.79
2022-08-02T15:25:25.526Z,32.21
2022-08-02T15:30:29.762Z,31.30
2022-08-02T15:35:34.765Z,30.60
2022-08-02T15:40:39.268Z,29.46
2022-08-02T15:45:43.393Z,29.24
2022-08-02T15:50:50.909Z,30.74
2022-08-02T15:56:05.474Z,31.13
2022-08-02T16:01:12.088Z,31.35
2022-08-02T16:06:16.512Z,33.38
2022-08-02T16:11:21.030Z,34.87
2022-08-02T16:16:31.861Z,35.69
2022-08-02T16:21:37.943Z,36.99
2022-08-02T16:26:42.826Z,38.37
2022-08-02T16:31:48.915Z,39.29
2022-08-02T16:36:54.379Z,39.81
2022-08-02T16:41:58.894Z,40.62
2022-08-02T16:47:03.115Z,41.98
2022-08-02T16:52:09.492Z,42.63
2022-08-02T16:57:14.587Z,43.37
2022-08-02T17:02:20.138Z,44.27
2022-08-02T17:08:07.351Z,45.05
2022-08-02T17:12:58.606Z,45.67
2022-08-02T17:18:16.023Z,46.23
2022-08-02T17:24:04.100Z,47.37
2022-08-02T17:29:16.503Z,48.72
2022-08-02T17:34:26.941Z,50.04
2022-08-02T17:39:34.310Z,51.01
2022-08-02T17:44:50.820Z,52.15
2022-08-02T17:49:58.942Z,53.11
2022-08-02T17:55:05.751Z,53.94
2022-08-02T18:00:12.338Z,54.65
2022-08-02T18:05:17.927Z,55.53
2022-08-02T18:10:26.740Z,56.26
2022-08-02T18:15:32.531Z,56.82
2022-08-02T18:20:37.558Z,57.62
2022-08-02T18:25:46.015Z,58.29
2022-08-02T18:30:52.281Z,58.92
2022-08-02T18:35:57.440Z,59.38
2022-08-02T18:41:03.511Z,60.00
2022-08-02T18:46:16.131Z,60.33
2022-08-02T18:51:22.124Z,60.71
2022-08-02T18:56:27.894Z,61.13
2022-08-02T19:01:46.814Z,61.72
2022-08-02T19:07:06.995Z,62.36
2022-08-02T19:12:13.114Z,62.95
2022-08-02T19:17:54.570Z,63.55
2022-08-02T19:22:44.966Z,64.36
2022-08-02T19:27:49.987Z,64.68
2022-08-02T19:32:59.405Z,65.31
2022-08-02T19:38:12.411Z,66.17
2022-08-02T19:44:26.683Z,66.61
2022-08-02T19:48:41.778Z,66.67
2022-08-02T19:53:47.826Z,67.08
2022-08-02T19:58:55.284Z,67.54
2022-08-02T20:04:01.450Z,68.12
2022-08-02T20:09:07.012Z,68.46
2022-08-02T20:14:15.342Z,68.63
2022-08-02T20:19:21.699Z,69.10
2022-08-02T20:24:26.820Z,69.71
2022-08-02T20:29:43.271Z,70.46
2022-08-02T20:34:52.622Z,70.83
2022-08-02T20:39:58.360Z,71.18
2022-08-02T20:45:02.975Z,71.72
2022-08-02T20:50:30.711Z,72.36
2022-08-02T20:55:45.825Z,72.83
2022-08-02T21:00:50.471Z,72.86
2022-08-02T21:05:58.208Z,72.96
2022-08-02T21:11:09.010Z,73.13
2022-08-02T21:16:18.494Z,73.45
2022-08-02T21:21:24.229Z,73.61
2022-08-02T21:26:31.118Z,74.05
2022-08-02T21:31:36.867Z,74.97
2022-08-02T21:36:42.369Z,75.21
2022-08-02T21:41:47.448Z,75.73
2022-08-02T21:46:56.527Z,76.43
2022-08-02T21:52:00.797Z,76.43
2022-08-02T21:57:05.248Z,76.94
2022-08-02T22:02:09.690Z,77.62
2022-08-02T22:07:14.037Z,78.21
2022-08-02T22:12:25.900Z,78.81
2022-08-02T22:17:50.955Z,79.34
2022-08-02T22:22:54.899Z,79.19
2022-08-02T22:28:35.100Z,79.46
2022-08-02T22:33:47.266Z,79.36
2022-08-02T22:44:36.794Z,80.84
2022-08-02T22:49:51.890Z,81.28
2022-08-02T22:55:04.914Z,81.07
2022-08-02T22:59:09.600Z,80.22
2022-08-02T23:00:11.844Z,81.25
2022-08-02T23:05:19.619Z,81.42
2022-08-02T23:10:24.768Z,81.50
2022-08-02T23:15:48.986Z,81.76
2022-08-02T23:20:53.213Z,82.14
2022-08-02T23:25:57.453Z,82.36
2022-08-02T23:31:02.060Z,82.24
2022-08-02T23:36:06.556Z,82.07
2022-08-02T23:41:10.476Z,82.00
2022-08-02T23:46:14.810Z,81.93
2022-08-02T23:51:22.246Z,81.89
2022-08-02T23:56:26.482Z,81.65
